sensor_id;sensor_type;location;lat;lon;timestamp;pressure;altitude;pressure_sealevel;temperature;humidity
6500;BME280;3283;52.330;9.772;2023-03-18T08:28:00;100352.22;;;13.16;100.00
6500;BME280;3283;52.330;9.772;2023-03-18T08:30:25;100351.22;;;13.22;100.00
6500;BME280;3283;52.330;9.772;2023-03-18T08:37:35;100358.25;;;12.90;100.00
6500;BME280;3283;52.330;9.772;2023-03-18T08:40:02;56484.91;;;-143.80;100.00
6500;BME280;3283;52.330;9.772;2023-03-18T08:42:27;56484.91;;;-143.80;100.00
6500;BME280;3283;52.330;9.772;2023-03-18T08:44:53;56484.91;;;-143.80;100.00
6500;BME280;3283;52.330;9.772;2023-03-18T09:44:12;100385.56;;;14.95;95.50
6500;BME280;3283;52.330;9.772;2023-03-18T09:47:00;100391.34;;;15.54;93.04
6500;BME280;3283;52.330;9.772;2023-03-18T09:49:49;100394.72;;;15.59;89.22
6500;BME280;3283;52.330;9.772;2023-03-18T09:52:34;100391.16;;;15.35;89.39
6500;BME280;3283;52.330;9.772;2023-03-18T13:58:32;100412.66;;;17.69;70.36
6500;BME280;3283;52.330;9.772;2023-03-18T14:01:25;100403.84;;;17.87;68.08
6500;BME280;3283;52.330;9.772;2023-03-18T14:06:46;100407.78;;;18.54;66.71
6500;BME280;3283;52.330;9.772;2023-03-18T14:11:53;100407.16;;;18.30;67.51
6500;BME280;3283;52.330;9.772;2023-03-18T14:17:20;100392.47;;;18.02;68.92
6500;BME280;3283;52.330;9.772;2023-03-18T14:19:46;100390.19;;;17.95;69.06
6500;BME280;3283;52.330;9.772;2023-03-18T14:22:32;100398.25;;;17.93;69.21
6500;BME280;3283;52.330;9.772;2023-03-18T14:27:54;100394.41;;;18.36;67.95
6500;BME280;3283;52.330;9.772;2023-03-18T14:30:49;100393.88;;;18.47;67.56
6500;BME280;3283;52.330;9.772;2023-03-18T14:35:55;100388.47;;;19.19;65.70
6500;BME280;3283;52.330;9.772;2023-03-18T14:38:41;100391.81;;;19.23;64.32
6500;BME280;3283;52.330;9.772;2023-03-18T14:41:16;100399.28;;;19.34;64.65
6500;BME280;3283;52.330;9.772;2023-03-18T14:43:52;100400.00;;;19.20;64.32
6500;BME280;3283;52.330;9.772;2023-03-18T14:46:22;100396.09;;;18.75;65.61
6500;BME280;3283;52.330;9.772;2023-03-18T14:48:54;100391.06;;;18.69;65.81
6500;BME280;3283;52.330;9.772;2023-03-18T14:51:21;100392.94;;;18.48;66.56
6500;BME280;3283;52.330;9.772;2023-03-18T14:53:53;100390.72;;;18.39;66.77
6500;BME280;3283;52.330;9.772;2023-03-18T14:56:27;100387.84;;;18.25;67.20
6500;BME280;3283;52.330;9.772;2023-03-18T14:58:54;100389.28;;;18.32;67.15
6500;BME280;3283;52.330;9.772;2023-03-18T15:01:27;100392.13;;;18.46;67.30
6500;BME280;3283;52.330;9.772;2023-03-18T15:03:56;100390.28;;;18.48;66.89
6500;BME280;3283;52.330;9.772;2023-03-18T15:06:24;100385.25;;;18.42;66.97
6500;BME280;3283;52.330;9.772;2023-03-18T15:09:02;100391.78;;;18.54;67.04
6500;BME280;3283;52.330;9.772;2023-03-18T15:11:31;100385.25;;;18.42;67.01
6500;BME280;3283;52.330;9.772;2023-03-18T15:14:01;100384.56;;;18.56;67.37
6500;BME280;3283;52.330;9.772;2023-03-18T15:16:28;100384.66;;;18.54;66.87
6500;BME280;3283;52.330;9.772;2023-03-18T15:18:56;100388.53;;;18.66;66.31
6500;BME280;3283;52.330;9.772;2023-03-18T15:21:25;100383.84;;;18.71;65.69
6500;BME280;3283;52.330;9.772;2023-03-18T15:23:56;100386.06;;;18.61;65.91
6500;BME280;3283;52.330;9.772;2023-03-18T15:26:28;100388.53;;;18.66;66.04
6500;BME280;3283;52.330;9.772;2023-03-18T15:28:57;100391.53;;;18.58;66.66
6500;BME280;3283;52.330;9.772;2023-03-18T15:31:38;100374.59;;;18.42;66.22
6500;BME280;3283;52.330;9.772;2023-03-18T15:35:43;100382.84;;;18.00;67.64
6500;BME280;3283;52.330;9.772;2023-03-18T15:40:37;100381.34;;;17.94;68.51
6500;BME280;3283;52.330;9.772;2023-03-18T15:45:39;100375.88;;;17.78;69.50
6500;BME280;3283;52.330;9.772;2023-03-18T15:48:06;100383.06;;;17.76;69.87
6500;BME280;3283;52.330;9.772;2023-03-18T15:50:33;100375.09;;;17.76;69.15
6500;BME280;3283;52.330;9.772;2023-03-18T15:54:25;100382.63;;;17.86;69.13
6500;BME280;3283;52.330;9.772;2023-03-18T16:01:45;100382.00;;;17.60;70.08
6500;BME280;3283;52.330;9.772;2023-03-18T16:04:16;100377.34;;;17.65;69.88
6500;BME280;3283;52.330;9.772;2023-03-18T16:06:42;100377.63;;;17.59;69.69
6500;BME280;3283;52.330;9.772;2023-03-18T16:09:19;100376.59;;;17.62;69.96
6500;BME280;3283;52.330;9.772;2023-03-18T16:11:51;100371.97;;;17.46;70.70
6500;BME280;3283;52.330;9.772;2023-03-18T16:14:19;100375.94;;;17.38;71.27
6500;BME280;3283;52.330;9.772;2023-03-18T16:16:45;100384.19;;;17.32;71.32
6500;BME280;3283;52.330;9.772;2023-03-18T16:19:25;100377.56;;;17.21;71.83
6500;BME280;3283;52.330;9.772;2023-03-18T16:21:56;100374.28;;;17.15;72.08
6500;BME280;3283;52.330;9.772;2023-03-18T16:24:25;100383.59;;;17.25;72.17
6500;BME280;3283;52.330;9.772;2023-03-18T16:26:52;100370.09;;;17.29;72.76
6500;BME280;3283;52.330;9.772;2023-03-18T16:29:23;100376.13;;;17.33;72.30
6500;BME280;3283;52.330;9.772;2023-03-18T16:31:51;100377.69;;;17.57;71.44
6500;BME280;3283;52.330;9.772;2023-03-18T16:34:17;100377.34;;;18.22;70.03
6500;BME280;3283;52.330;9.772;2023-03-18T16:36:44;100383.84;;;19.06;66.74
6500;BME280;3283;52.330;9.772;2023-03-18T16:39:24;75549.91;;;20.47;100.00
6500;BME280;3283;52.330;9.772;2023-03-18T16:41:51;100377.16;;;21.50;59.37
6500;BME280;3283;52.330;9.772;2023-03-18T16:44:19;100389.06;;;22.01;58.17
6500;BME280;3283;52.330;9.772;2023-03-18T16:46:48;100375.91;;;22.25;56.81
6500;BME280;3283;52.330;9.772;2023-03-18T16:49:19;100384.00;;;21.82;57.19
6500;BME280;3283;52.330;9.772;2023-03-18T16:51:45;56484.91;;;-143.80;100.00
6500;BME280;3283;52.330;9.772;2023-03-18T16:54:25;56484.91;;;-143.80;100.00
6500;BME280;3283;52.330;9.772;2023-03-18T16:56:53;56484.91;;;-143.80;100.00
6500;BME280;3283;52.330;9.772;2023-03-18T16:59:19;56484.91;;;-143.80;100.00
6500;BME280;3283;52.330;9.772;2023-03-18T17:01:45;56484.91;;;-143.80;100.00
6500;BME280;3283;52.330;9.772;2023-03-18T17:04:25;56484.91;;;-143.80;100.00
6500;BME280;3283;52.330;9.772;2023-03-18T17:06:53;56484.91;;;-143.80;100.00
6500;BME280;3283;52.330;9.772;2023-03-18T17:09:19;56484.91;;;-143.80;100.00
6500;BME280;3283;52.330;9.772;2023-03-18T17:11:46;56484.91;;;-143.80;100.00
6500;BME280;3283;52.330;9.772;2023-03-18T17:16:48;56484.91;;;-143.80;100.00
6500;BME280;3283;52.330;9.772;2023-03-18T17:19:14;56484.91;;;-143.80;100.00
6500;BME280;3283;52.330;9.772;2023-03-18T17:21:40;56484.91;;;-143.80;100.00
6500;BME280;3283;52.330;9.772;2023-03-18T17:24:06;56484.91;;;-143.80;100.00
6500;BME280;3283;52.330;9.772;2023-03-18T17:26:31;56484.91;;;-143.80;100.00
6500;BME280;3283;52.330;9.772;2023-03-18T17:28:56;56484.91;;;-143.80;100.00
6500;BME280;3283;52.330;9.772;2023-03-18T17:31:23;56484.91;;;-143.80;100.00
6500;BME280;3283;52.330;9.772;2023-03-18T17:33:48;56484.91;;;-143.80;100.00
6500;BME280;3283;52.330;9.772;2023-03-18T17:36:14;56484.91;;;-143.80;100.00
6500;BME280;3283;52.330;9.772;2023-03-18T17:38:39;56484.91;;;-143.80;100.00
6500;BME280;3283;52.330;9.772;2023-03-18T17:41:13;56484.91;;;-143.80;100.00
6500;BME280;3283;52.330;9.772;2023-03-18T17:43:40;56484.91;;;-143.80;100.00
6500;BME280;3283;52.330;9.772;2023-03-18T17:46:06;56484.91;;;-143.80;100.00
6500;BME280;3283;52.330;9.772;2023-03-18T17:48:34;56484.91;;;-143.80;100.00
6500;BME280;3283;52.330;9.772;2023-03-18T17:51:03;56484.91;;;-143.80;100.00
6500;BME280;3283;52.330;9.772;2023-03-18T17:53:45;56484.91;;;-143.80;100.00
6500;BME280;3283;52.330;9.772;2023-03-18T17:56:14;56484.91;;;-143.80;100.00
6500;BME280;3283;52.330;9.772;2023-03-18T17:58:48;56484.91;;;-143.80;100.00
6500;BME280;3283;52.330;9.772;2023-03-18T18:01:18;56484.91;;;-143.80;100.00
6500;BME280;3283;52.330;9.772;2023-03-18T18:03:44;56484.91;;;-143.80;100.00
6500;BME280;3283;52.330;9.772;2023-03-18T18:06:21;56484.91;;;-143.80;100.00
6500;BME280;3283;52.330;9.772;2023-03-18T18:08:48;56484.91;;;-143.80;100.00
6500;BME280;3283;52.330;9.772;2023-03-18T18:11:24;56484.91;;;-143.80;100.00
6500;BME280;3283;52.330;9.772;2023-03-18T18:13:52;56484.91;;;-143.80;100.00
6500;BME280;3283;52.330;9.772;2023-03-18T18:16:20;56484.91;;;-143.80;100.00
6500;BME280;3283;52.330;9.772;2023-03-18T18:18:46;56484.91;;;-143.80;100.00
6500;BME280;3283;52.330;9.772;2023-03-18T18:21:13;56484.91;;;-143.80;100.00
6500;BME280;3283;52.330;9.772;2023-03-18T18:23:40;56484.91;;;-143.80;100.00
6500;BME280;3283;52.330;9.772;2023-03-18T18:26:09;56484.91;;;-143.80;100.00
6500;BME280;3283;52.330;9.772;2023-03-18T18:28:45;56484.91;;;-143.80;100.00
6500;BME280;3283;52.330;9.772;2023-03-18T18:31:12;56484.91;;;-143.80;100.00
6500;BME280;3283;52.330;9.772;2023-03-18T18:33:40;56484.91;;;-143.80;100.00
6500;BME280;3283;52.330;9.772;2023-03-18T18:36:07;56484.91;;;-143.80;100.00
6500;BME280;3283;52.330;9.772;2023-03-18T18:38:33;56484.91;;;-143.80;100.00
6500;BME280;3283;52.330;9.772;2023-03-18T18:40:59;56484.91;;;-143.80;100.00
6500;BME280;3283;52.330;9.772;2023-03-18T18:43:25;56484.91;;;-143.80;100.00
6500;BME280;3283;52.330;9.772;2023-03-18T18:45:52;56484.91;;;-143.80;100.00
6500;BME280;3283;52.330;9.772;2023-03-18T18:50:54;56484.91;;;-143.80;100.00
6500;BME280;3283;52.330;9.772;2023-03-18T18:53:33;56484.91;;;-143.80;100.00
6500;BME280;3283;52.330;9.772;2023-03-18T18:56:11;56484.91;;;-143.80;100.00
6500;BME280;3283;52.330;9.772;2023-03-18T18:58:38;56484.91;;;-143.80;100.00
6500;BME280;3283;52.330;9.772;2023-03-18T19:01:03;56484.91;;;-143.80;100.00
6500;BME280;3283;52.330;9.772;2023-03-18T19:03:29;56484.91;;;-143.80;100.00
6500;BME280;3283;52.330;9.772;2023-03-18T19:05:56;56484.91;;;-143.80;100.00
6500;BME280;3283;52.330;9.772;2023-03-18T19:08:26;56484.91;;;-143.80;100.00
6500;BME280;3283;52.330;9.772;2023-03-18T19:10:57;56484.91;;;-143.80;100.00
6500;BME280;3283;52.330;9.772;2023-03-18T19:13:24;56484.91;;;-143.80;100.00
6500;BME280;3283;52.330;9.772;2023-03-18T19:15:54;56484.91;;;-143.80;100.00
6500;BME280;3283;52.330;9.772;2023-03-18T19:18:25;56484.91;;;-143.80;100.00
6500;BME280;3283;52.330;9.772;2023-03-18T19:20:52;56484.91;;;-143.80;100.00
6500;BME280;3283;52.330;9.772;2023-03-18T19:23:29;56484.91;;;-143.80;100.00
6500;BME280;3283;52.330;9.772;2023-03-18T19:25:55;56484.91;;;-143.80;100.00
6500;BME280;3283;52.330;9.772;2023-03-18T19:28:29;56484.91;;;-143.80;100.00
6500;BME280;3283;52.330;9.772;2023-03-18T19:31:08;56484.91;;;-143.80;100.00
6500;BME280;3283;52.330;9.772;2023-03-18T19:33:35;56484.91;;;-143.80;100.00
6500;BME280;3283;52.330;9.772;2023-03-18T19:36:04;56484.91;;;-143.80;100.00
6500;BME280;3283;52.330;9.772;2023-03-18T19:38:32;56484.91;;;-143.80;100.00
6500;BME280;3283;52.330;9.772;2023-03-18T19:40:58;56484.91;;;-143.80;100.00
6500;BME280;3283;52.330;9.772;2023-03-18T19:43:23;56484.91;;;-143.80;100.00
6500;BME280;3283;52.330;9.772;2023-03-18T19:45:48;56484.91;;;-143.80;100.00
6500;BME280;3283;52.330;9.772;2023-03-18T19:48:16;56484.91;;;-143.80;100.00
6500;BME280;3283;52.330;9.772;2023-03-18T19:50:42;56484.91;;;-143.80;100.00
6500;BME280;3283;52.330;9.772;2023-03-18T19:53:10;56484.91;;;-143.80;100.00
6500;BME280;3283;52.330;9.772;2023-03-18T19:55:36;56484.91;;;-143.80;100.00
6500;BME280;3283;52.330;9.772;2023-03-18T19:58:01;56484.91;;;-143.80;100.00
6500;BME280;3283;52.330;9.772;2023-03-18T20:00:27;56484.91;;;-143.80;100.00
6500;BME280;3283;52.330;9.772;2023-03-18T20:02:53;56484.91;;;-143.80;100.00
6500;BME280;3283;52.330;9.772;2023-03-18T20:05:21;56484.91;;;-143.80;100.00
6500;BME280;3283;52.330;9.772;2023-03-18T20:07:47;56484.91;;;-143.80;100.00
6500;BME280;3283;52.330;9.772;2023-03-18T20:10:15;56484.91;;;-143.80;100.00
6500;BME280;3283;52.330;9.772;2023-03-18T20:12:43;56484.91;;;-143.80;100.00
6500;BME280;3283;52.330;9.772;2023-03-18T20:15:17;56484.91;;;-143.80;100.00
6500;BME280;3283;52.330;9.772;2023-03-18T20:17:44;56484.91;;;-143.80;100.00
6500;BME280;3283;52.330;9.772;2023-03-18T20:23:05;56484.91;;;-143.80;100.00
6500;BME280;3283;52.330;9.772;2023-03-18T20:25:32;56484.91;;;-143.80;100.00
6500;BME280;3283;52.330;9.772;2023-03-18T20:28:01;56484.91;;;-143.80;100.00
6500;BME280;3283;52.330;9.772;2023-03-18T20:30:37;56484.91;;;-143.80;100.00
6500;BME280;3283;52.330;9.772;2023-03-18T20:33:04;56484.91;;;-143.80;100.00
6500;BME280;3283;52.330;9.772;2023-03-18T20:35:32;56484.91;;;-143.80;100.00
6500;BME280;3283;52.330;9.772;2023-03-18T20:38:02;56484.91;;;-143.80;100.00
6500;BME280;3283;52.330;9.772;2023-03-18T20:40:29;56484.91;;;-143.80;100.00
6500;BME280;3283;52.330;9.772;2023-03-18T20:42:55;56484.91;;;-143.80;100.00
6500;BME280;3283;52.330;9.772;2023-03-18T20:45:22;56484.91;;;-143.80;100.00
6500;BME280;3283;52.330;9.772;2023-03-18T20:47:49;56484.91;;;-143.80;100.00
6500;BME280;3283;52.330;9.772;2023-03-18T20:50:17;56484.91;;;-143.80;100.00
6500;BME280;3283;52.330;9.772;2023-03-18T20:52:44;56484.91;;;-143.80;100.00
6500;BME280;3283;52.330;9.772;2023-03-18T20:57:44;56484.91;;;-143.80;100.00
6500;BME280;3283;52.330;9.772;2023-03-18T21:00:13;56484.91;;;-143.80;100.00
6500;BME280;3283;52.330;9.772;2023-03-18T21:02:41;56484.91;;;-143.80;100.00
6500;BME280;3283;52.330;9.772;2023-03-18T21:05:09;56484.91;;;-143.80;100.00
6500;BME280;3283;52.330;9.772;2023-03-18T21:07:34;56484.91;;;-143.80;100.00
6500;BME280;3283;52.330;9.772;2023-03-18T21:10:00;56484.91;;;-143.80;100.00
6500;BME280;3283;52.330;9.772;2023-03-18T21:12:26;56484.91;;;-143.80;100.00
6500;BME280;3283;52.330;9.772;2023-03-18T21:14:51;56484.91;;;-143.80;100.00
6500;BME280;3283;52.330;9.772;2023-03-18T21:17:22;56484.91;;;-143.80;100.00
6500;BME280;3283;52.330;9.772;2023-03-18T21:19:49;56484.91;;;-143.80;100.00
6500;BME280;3283;52.330;9.772;2023-03-18T21:22:26;56484.91;;;-143.80;100.00
6500;BME280;3283;52.330;9.772;2023-03-18T21:24:53;56484.91;;;-143.80;100.00
6500;BME280;3283;52.330;9.772;2023-03-18T21:27:21;56484.91;;;-143.80;100.00
6500;BME280;3283;52.330;9.772;2023-03-18T21:29:48;56484.91;;;-143.80;100.00
6500;BME280;3283;52.330;9.772;2023-03-18T21:32:27;56484.91;;;-143.80;100.00
6500;BME280;3283;52.330;9.772;2023-03-18T21:34:55;56484.91;;;-143.80;100.00
6500;BME280;3283;52.330;9.772;2023-03-18T21:37:23;56484.91;;;-143.80;100.00
6500;BME280;3283;52.330;9.772;2023-03-18T21:39:49;56484.91;;;-143.80;100.00
6500;BME280;3283;52.330;9.772;2023-03-18T21:42:33;56484.91;;;-143.80;100.00
6500;BME280;3283;52.330;9.772;2023-03-18T21:45:00;56484.91;;;-143.80;100.00
6500;BME280;3283;52.330;9.772;2023-03-18T21:47:26;56484.91;;;-143.80;100.00
6500;BME280;3283;52.330;9.772;2023-03-18T21:49:51;56484.91;;;-143.80;100.00
6500;BME280;3283;52.330;9.772;2023-03-18T21:52:30;56484.91;;;-143.80;100.00
6500;BME280;3283;52.330;9.772;2023-03-18T21:54:57;56484.91;;;-143.80;100.00
6500;BME280;3283;52.330;9.772;2023-03-18T21:57:23;56484.91;;;-143.80;100.00
6500;BME280;3283;52.330;9.772;2023-03-18T21:59:52;56484.91;;;-143.80;100.00
6500;BME280;3283;52.330;9.772;2023-03-18T22:04:51;56484.91;;;-143.80;100.00
6500;BME280;3283;52.330;9.772;2023-03-18T22:07:17;56484.91;;;-143.80;100.00
6500;BME280;3283;52.330;9.772;2023-03-18T22:09:42;56484.91;;;-143.80;100.00
6500;BME280;3283;52.330;9.772;2023-03-18T22:12:17;56484.91;;;-143.80;100.00
6500;BME280;3283;52.330;9.772;2023-03-18T22:14:43;56484.91;;;-143.80;100.00
6500;BME280;3283;52.330;9.772;2023-03-18T22:19:43;56484.91;;;-143.80;100.00
6500;BME280;3283;52.330;9.772;2023-03-18T22:22:14;56484.91;;;-143.80;100.00
6500;BME280;3283;52.330;9.772;2023-03-18T22:24:40;56484.91;;;-143.80;100.00
6500;BME280;3283;52.330;9.772;2023-03-18T22:27:31;56484.91;;;-143.80;100.00
6500;BME280;3283;52.330;9.772;2023-03-18T22:29:57;56484.91;;;-143.80;100.00
6500;BME280;3283;52.330;9.772;2023-03-18T22:32:41;56484.91;;;-143.80;100.00
6500;BME280;3283;52.330;9.772;2023-03-18T22:37:38;56484.91;;;-143.80;100.00
6500;BME280;3283;52.330;9.772;2023-03-18T22:40:05;56484.91;;;-143.80;100.00
6500;BME280;3283;52.330;9.772;2023-03-18T22:42:30;56484.91;;;-143.80;100.00
6500;BME280;3283;52.330;9.772;2023-03-18T22:44:55;56484.91;;;-143.80;100.00
6500;BME280;3283;52.330;9.772;2023-03-18T22:47:23;56484.91;;;-143.80;100.00
6500;BME280;3283;52.330;9.772;2023-03-18T22:49:49;56484.91;;;-143.80;100.00
6500;BME280;3283;52.330;9.772;2023-03-18T22:52:20;56484.91;;;-143.80;100.00
6500;BME280;3283;52.330;9.772;2023-03-18T22:54:47;56484.91;;;-143.80;100.00
6500;BME280;3283;52.330;9.772;2023-03-18T22:57:23;56484.91;;;-143.80;100.00
6500;BME280;3283;52.330;9.772;2023-03-18T22:59:51;56484.91;;;-143.80;100.00
6500;BME280;3283;52.330;9.772;2023-03-18T23:02:20;56484.91;;;-143.80;100.00
6500;BME280;3283;52.330;9.772;2023-03-18T23:04:47;56484.91;;;-143.80;100.00
6500;BME280;3283;52.330;9.772;2023-03-18T23:07:32;56484.91;;;-143.80;100.00
6500;BME280;3283;52.330;9.772;2023-03-18T23:09:59;56484.91;;;-143.80;100.00
6500;BME280;3283;52.330;9.772;2023-03-18T23:12:27;56484.91;;;-143.80;100.00
6500;BME280;3283;52.330;9.772;2023-03-18T23:14:54;56484.91;;;-143.80;100.00
6500;BME280;3283;52.330;9.772;2023-03-18T23:17:21;56484.91;;;-143.80;100.00
6500;BME280;3283;52.330;9.772;2023-03-18T23:19:48;56484.91;;;-143.80;100.00
6500;BME280;3283;52.330;9.772;2023-03-18T23:22:19;56484.91;;;-143.80;100.00
6500;BME280;3283;52.330;9.772;2023-03-18T23:24:45;56484.91;;;-143.80;100.00
6500;BME280;3283;52.330;9.772;2023-03-18T23:27:11;56484.91;;;-143.80;100.00
6500;BME280;3283;52.330;9.772;2023-03-18T23:29:36;56484.91;;;-143.80;100.00
6500;BME280;3283;52.330;9.772;2023-03-18T23:32:02;56484.91;;;-143.80;100.00
6500;BME280;3283;52.330;9.772;2023-03-18T23:34:27;56484.91;;;-143.80;100.00
6500;BME280;3283;52.330;9.772;2023-03-18T23:36:52;56484.91;;;-143.80;100.00
6500;BME280;3283;52.330;9.772;2023-03-18T23:39:18;56484.91;;;-143.80;100.00
6500;BME280;3283;52.330;9.772;2023-03-18T23:41:43;56484.91;;;-143.80;100.00
6500;BME280;3283;52.330;9.772;2023-03-18T23:44:10;56484.91;;;-143.80;100.00
6500;BME280;3283;52.330;9.772;2023-03-18T23:46:35;56484.91;;;-143.80;100.00
6500;BME280;3283;52.330;9.772;2023-03-18T23:49:01;56484.91;;;-143.80;100.00
6500;BME280;3283;52.330;9.772;2023-03-18T23:51:26;56484.91;;;-143.80;100.00
6500;BME280;3283;52.330;9.772;2023-03-18T23:53:51;56484.91;;;-143.80;100.00
6500;BME280;3283;52.330;9.772;2023-03-18T23:56:17;56484.91;;;-143.80;100.00
6500;BME280;3283;52.330;9.772;2023-03-18T23:58:42;56484.91;;;-143.80;100.00
